This is the latest recevied weather packets stored in our database for station/object W8KVG. If no packets are shown the sender has not sent any weather packets the latest 1 day(s).
| Time | Temp. | Humidity | Pressure | Rain* | Wind** | Luminosity | Snow |
|---|---|---|---|---|---|---|---|
| 1777982113 | 17.78° C | 68% | 1007.7 hPa | 0 mm | 0 m/s | 16 W/m² | - |
| 1777981811 | 17.78° C | 68% | 1007.6 hPa | 0 mm | 2.24 m/s, 221° | 28 W/m² | - |
| 1777981508 | 17.78° C | 69% | 1007.4 hPa | 0 mm | 0 m/s | 28 W/m² | - |
| 1777981204 | 17.78° C | 68% | 1007.5 hPa | 0 mm | 0 m/s | 40 W/m² | - |
| 1777980901 | 17.78° C | 69% | 1007.6 hPa | 0 mm | 1.34 m/s, 325° | 53 W/m² | - |
| 1777980596 | 17.78° C | 69% | 1007.5 hPa | 0 mm | 0 m/s | 48 W/m² | - |
| 1777980293 | 17.22° C | 70% | 1007.6 hPa | 0 mm | 1.34 m/s, 205° | 35 W/m² | - |
| 1777979990 | 17.22° C | 71% | 1007.5 hPa | 0 mm | 1.34 m/s, 6° | 31 W/m² | - |
| 1777979684 | 16.67° C | 72% | 1007.4 hPa | 0 mm | 0 m/s | 26 W/m² | - |
| 1777979381 | 16.67° C | 71% | 1007.5 hPa | 0 mm | 0.89 m/s, 151° | 23 W/m² | - |
| 1777979078 | 16.67° C | 72% | 1007.2 hPa | 0 mm | 0.89 m/s, 211° | 20 W/m² | - |
| 1777978774 | 16.67° C | 72% | 1007.2 hPa | 0 mm | 0 m/s | 16 W/m² | - |
| 1777978471 | 16.67° C | 71% | 1007 hPa | 0 mm | 0 m/s | 12 W/m² | - |
| 1777978167 | 16.67° C | 72% | 1007.1 hPa | 0 mm | 0 m/s | 9 W/m² | - |
| 1777977865 | 16.67° C | 73% | 1007.2 hPa | 0 mm | 0.89 m/s, 354° | 7 W/m² | - |
| 1777977561 | 16.67° C | 73% | 1007 hPa | 0 mm | 0.89 m/s, 175° | 6 W/m² | - |
| 1777977259 | 16.67° C | 72% | 1006.9 hPa | 0 mm | 0 m/s | 4 W/m² | - |
| 1777976955 | 16.67° C | 72% | 1006.9 hPa | 0 mm | 0.89 m/s, 281° | 3 W/m² | - |
| 1777976653 | 16.67° C | 72% | 1006.6 hPa | 0 mm | 0.89 m/s, 327° | 3 W/m² | - |
| 1777976349 | 16.67° C | 72% | 1006.6 hPa | 0 mm | 1.34 m/s, 1° | 2 W/m² | - |
| 1777976043 | 16.67° C | 72% | 1006.5 hPa | 0 mm | 0.89 m/s, 210° | 1 W/m² | - |
| 1777975740 | 16.67° C | 73% | 1006.8 hPa | 0 mm | 0.89 m/s, 193° | 0 W/m² | - |
| 1777975436 | 16.67° C | 72% | 1006.6 hPa | 0 mm | 1.79 m/s, 183° | 0 W/m² | - |
| 1777975132 | 17.22° C | 70% | 1006.6 hPa | 0 mm | 0 m/s | 0 W/m² | - |
| 1777974830 | 17.22° C | 70% | 1006.3 hPa | 0 mm | 0.89 m/s, 274° | 0 W/m² | - |
* Rain latest hour (hover to see other rain measurements)
** Current wind speed in m/s (hover to see current wind gust speed)